Time;durP1;ratioP1;P1;durP2;ratioP2;P2;SDS_P1;SDS_P2;PMS_P1;PMS_P2;Temp;Humidity;BMP_temperature;BMP_pressure;BME280_temperature;BME280_humidity;BME280_pressure;Samples;Min_cycle;Max_cycle;Signal;HPM_P1;HPM_P2
2022/11/05 00:10:33;;;;;;;14.73;3.72;;;6.10;99.90;;;;;;5008926;28;20041;-77
2022/11/05 00:18:28;;;;;;;13.97;4.30;;;5.80;99.90;;;;;;5006199;28;20463;-78
2022/11/05 00:20:54;;;;;;;12.88;4.05;;;5.80;99.90;;;;;;5005683;28;20809;-80
2022/11/05 00:26:06;;;;;;;13.70;4.15;;;5.70;99.90;;;;;;4999318;28;20045;-78
2022/11/05 00:28:34;;;;;;;17.58;4.50;;;5.80;99.90;;;;;;5004264;28;20567;-78
2022/11/05 00:31:02;;;;;;;10.43;4.35;;;5.90;99.90;;;;;;4977758;28;20473;-78
2022/11/05 00:33:28;;;;;;;19.65;4.70;;;5.90;99.90;;;;;;4982976;28;20057;-81
2022/11/05 00:35:55;;;;;;;17.17;4.35;;;5.80;99.90;;;;;;4991024;28;20041;-81
2022/11/05 00:38:21;;;;;;;17.52;4.70;;;5.80;99.90;;;;;;4988219;28;20404;-78
2022/11/05 00:40:46;;;;;;;17.83;4.57;;;5.60;99.90;;;;;;4991747;28;20041;-80
2022/11/05 00:45:57;;;;;;;17.42;4.80;;;5.70;99.90;;;;;;5005365;28;20037;-79
2022/11/05 00:51:07;;;;;;;11.52;4.20;;;5.60;99.90;;;;;;4995927;28;20054;-80
2022/11/05 00:53:33;;;;;;;20.42;4.25;;;5.70;99.90;;;;;;4997785;28;20112;-82
2022/11/05 00:55:59;;;;;;;18.40;4.75;;;5.80;99.90;;;;;;5001264;28;20033;-79
2022/11/05 00:58:27;;;;;;;15.30;4.32;;;5.70;99.90;;;;;;4991776;28;20052;-80
2022/11/05 01:00:55;;;;;;;19.20;4.50;;;5.70;99.90;;;;;;5003180;28;20065;-81
2022/11/05 01:03:25;;;;;;;11.65;4.13;;;5.60;99.90;;;;;;5004507;28;20038;-81
2022/11/05 01:05:55;;;;;;;10.80;3.85;;;5.40;99.90;;;;;;4999561;28;20077;-81
2022/11/05 01:08:24;;;;;;;13.88;3.92;;;5.40;99.90;;;;;;4997898;28;20049;-79
2022/11/05 01:10:52;;;;;;;13.88;4.20;;;5.60;99.90;;;;;;4987873;28;20835;-77
2022/11/05 01:13:20;;;;;;;15.38;4.03;;;5.50;99.90;;;;;;5002093;28;20041;-78
2022/11/05 01:15:47;;;;;;;12.50;3.83;;;5.30;99.90;;;;;;4990539;28;20500;-78
2022/11/05 01:18:14;;;;;;;18.15;4.07;;;5.50;99.90;;;;;;5000999;28;20128;-81
2022/11/05 01:20:40;;;;;;;14.27;4.03;;;5.50;99.90;;;;;;5004146;28;20078;-81
2022/11/05 01:23:05;;;;;;;16.83;4.00;;;5.50;99.90;;;;;;5003506;28;20464;-80
2022/11/05 01:25:31;;;;;;;15.93;3.65;;;5.50;99.90;;;;;;5003411;28;20041;-77
2022/11/05 01:27:57;;;;;;;14.60;3.55;;;5.30;99.90;;;;;;5002434;28;20081;-78
2022/11/05 01:30:23;;;;;;;11.18;3.22;;;5.50;99.90;;;;;;5002279;28;20091;-80
2022/11/05 01:32:48;;;;;;;12.35;3.63;;;5.50;99.90;;;;;;5001739;28;20048;-80
2022/11/05 01:35:16;;;;;;;21.58;3.78;;;5.40;99.90;;;;;;5002643;28;20042;-77
2022/11/05 01:37:41;;;;;;;11.75;3.60;;;5.50;99.90;;;;;;4997812;28;20057;-81
2022/11/05 01:40:11;;;;;;;12.88;3.60;;;5.40;99.90;;;;;;4987928;28;20049;-80
2022/11/05 01:42:37;;;;;;;11.90;3.25;;;5.40;99.90;;;;;;4999570;28;20056;-80
2022/11/05 01:45:22;;;;;;;18.85;3.05;;;5.40;99.90;;;;;;4995566;28;20485;-80
2022/11/05 01:47:50;;;;;;;10.15;2.67;;;5.30;99.90;;;;;;4984912;28;20068;-78
2022/11/05 01:50:27;;;;;;;16.60;2.75;;;5.50;99.90;;;;;;4992123;28;20515;-83
2022/11/05 01:53:01;;;;;;;11.85;2.80;;;5.30;99.90;;;;;;4992692;28;20049;-81
2022/11/05 01:55:32;;;;;;;10.57;3.15;;;5.40;99.90;;;;;;4991469;28;20433;-80
2022/11/05 01:58:00;;;;;;;12.10;3.03;;;5.20;99.90;;;;;;5006620;28;20048;-80
2022/11/05 02:00:26;;;;;;;20.95;2.83;;;5.40;99.90;;;;;;5015568;28;20373;-78
2022/11/05 02:02:52;;;;;;;12.80;3.53;;;5.40;99.90;;;;;;4999251;28;20059;-83
2022/11/05 02:05:18;;;;;;;14.57;2.75;;;5.40;99.90;;;;;;4987592;28;20049;-80
2022/11/05 02:07:47;;;;;;;13.48;2.85;;;5.20;99.90;;;;;;4981080;28;20059;-80
2022/11/05 02:10:16;;;;;;;10.35;2.45;;;5.10;99.90;;;;;;5001676;28;20100;-79
2022/11/05 02:12:45;;;;;;;15.18;3.00;;;5.20;99.90;;;;;;5000523;28;20042;-79
2022/11/05 02:15:20;;;;;;;13.13;2.95;;;5.30;99.90;;;;;;4988986;28;20052;-79
2022/11/05 02:17:50;;;;;;;13.95;3.22;;;5.30;99.90;;;;;;4975337;28;20041;-79
2022/11/05 02:20:44;;;;;;;10.43;3.03;;;5.40;99.90;;;;;;5010585;28;20124;-80
2022/11/05 02:23:28;;;;;;;14.23;3.45;;;5.30;99.90;;;;;;5018711;28;20045;-80
2022/11/05 02:26:13;;;;;;;11.05;2.97;;;5.20;99.90;;;;;;4992620;28;20050;-77
2022/11/05 02:28:55;;;;;;;15.35;3.10;;;5.20;99.90;;;;;;5008687;28;20524;-79
2022/11/05 02:31:26;;;;;;;16.25;3.00;;;5.30;99.90;;;;;;4994851;28;20049;-79
2022/11/05 02:33:58;;;;;;;15.20;3.30;;;5.30;99.90;;;;;;5005112;28;20468;-79
2022/11/05 02:36:38;;;;;;;10.35;2.97;;;5.10;99.90;;;;;;5004357;28;20037;-80
2022/11/05 02:39:24;;;;;;;17.02;3.08;;;5.30;99.90;;;;;;5019062;28;20044;-80
2022/11/05 02:42:05;;;;;;;10.77;3.10;;;5.20;99.90;;;;;;5004632;28;20052;-80
2022/11/05 02:44:42;;;;;;;15.45;3.13;;;5.10;99.90;;;;;;5003560;28;20160;-77
2022/11/05 02:47:34;;;;;;;12.93;2.60;;;5.10;99.90;;;;;;5001284;28;20096;-77
2022/11/05 02:50:23;;;;;;;14.23;2.35;;;5.10;99.90;;;;;;4933518;28;20529;-81
2022/11/05 02:52:48;;;;;;;8.75;2.20;;;5.10;99.90;;;;;;4966341;28;20058;-80
2022/11/05 02:55:36;;;;;;;11.48;2.67;;;5.20;99.90;;;;;;4936415;28;20510;-78
2022/11/05 02:58:04;;;;;;;12.00;2.72;;;5.00;99.90;;;;;;4952314;28;20054;-79
2022/11/05 03:00:51;;;;;;;12.60;3.10;;;5.10;99.90;;;;;;4934362;28;20136;-80
2022/11/05 03:03:32;;;;;;;14.35;2.80;;;5.10;99.90;;;;;;4950956;28;20047;-79
2022/11/05 03:06:23;;;;;;;12.32;2.55;;;5.20;99.90;;;;;;4950898;28;20458;-82
2022/11/05 03:08:58;;;;;;;5.93;2.20;;;5.10;99.90;;;;;;4951572;28;20038;-80
2022/11/05 03:11:27;;;;;;;13.35;3.05;;;5.20;99.90;;;;;;4952862;28;20101;-81
2022/11/05 03:14:12;;;;;;;10.45;2.85;;;5.10;99.90;;;;;;4937746;28;20053;-78
2022/11/05 03:16:46;;;;;;;12.98;2.88;;;5.20;99.90;;;;;;4967896;28;20046;-80
2022/11/05 03:19:47;;;;;;;8.68;2.47;;;5.10;99.90;;;;;;4950666;28;20123;-82
2022/11/05 03:22:20;;;;;;;8.85;2.90;;;5.20;99.90;;;;;;4949291;28;20073;-80
2022/11/05 03:24:50;;;;;;;12.13;2.88;;;5.40;99.90;;;;;;4956145;28;20058;-80
2022/11/05 03:27:22;;;;;;;9.57;2.53;;;5.30;99.90;;;;;;4932872;28;20197;-78
2022/11/05 03:30:16;;;;;;;9.00;2.65;;;5.40;99.90;;;;;;4955210;28;20047;-78
2022/11/05 03:32:52;;;;;;;10.77;3.17;;;5.40;99.90;;;;;;4966532;28;20050;-83
2022/11/05 03:35:22;;;;;;;12.18;3.10;;;5.40;99.90;;;;;;4958683;28;20050;-78
2022/11/05 03:37:52;;;;;;;14.45;2.97;;;5.40;99.90;;;;;;4967806;28;20177;-80
2022/11/05 03:40:22;;;;;;;14.15;3.22;;;5.40;99.90;;;;;;4939059;28;20495;-80
2022/11/05 03:42:52;;;;;;;6.63;2.70;;;5.50;99.90;;;;;;4965667;28;20035;-78
2022/11/05 03:49:01;;;;;;;12.00;2.97;;;5.70;99.90;;;;;;4970493;28;20174;-80
2022/11/05 03:51:41;;;;;;;8.45;2.58;;;5.80;99.90;;;;;;4949638;28;20046;-78
2022/11/05 03:54:09;;;;;;;11.07;2.47;;;5.70;99.90;;;;;;4933874;28;20821;-79
2022/11/05 03:56:50;;;;;;;7.68;2.95;;;5.90;99.90;;;;;;4966343;28;20046;-82
2022/11/05 03:59:16;;;;;;;8.32;2.63;;;6.00;99.90;;;;;;5020712;28;20137;-79
2022/11/05 04:01:43;;;;;;;5.88;2.83;;;5.90;99.90;;;;;;4989391;28;20045;-81
2022/11/05 04:04:09;;;;;;;8.52;2.67;;;6.00;99.90;;;;;;4992321;28;20094;-78
2022/11/05 04:14:47;;;;;;;9.40;2.85;;;6.30;99.90;;;;;;4995954;28;20080;-81
2022/11/05 04:17:13;;;;;;;9.68;2.70;;;6.20;99.90;;;;;;5003496;28;20469;-82
2022/11/05 04:25:13;;;;;;;10.68;2.80;;;6.50;99.90;;;;;;5011940;28;20041;-81
2022/11/05 04:27:39;;;;;;;13.77;3.03;;;6.50;99.90;;;;;;5003676;28;20110;-81
2022/11/05 04:30:18;;;;;;;11.18;2.85;;;6.40;99.90;;;;;;4990268;28;20041;-79
2022/11/05 04:33:11;;;;;;;9.10;3.42;;;6.40;99.90;;;;;;5009535;28;20125;-79
2022/11/05 04:35:41;;;;;;;7.88;2.80;;;6.30;99.90;;;;;;4999330;28;20073;-77
2022/11/05 04:38:13;;;;;;;7.47;2.83;;;6.50;99.90;;;;;;5005503;28;20045;-81
2022/11/05 04:40:39;;;;;;;7.65;2.95;;;6.40;99.90;;;;;;4993363;28;20053;-82
2022/11/05 04:43:07;;;;;;;17.08;3.83;;;6.10;99.90;;;;;;5008855;28;20050;-78
2022/11/05 04:45:34;;;;;;;8.68;3.50;;;6.00;99.90;;;;;;5012380;28;20053;-81
2022/11/05 04:48:03;;;;;;;12.35;3.40;;;6.10;99.90;;;;;;4999678;28;20481;-81
2022/11/05 04:50:29;;;;;;;15.05;3.38;;;6.10;99.90;;;;;;4985486;28;20049;-81
2022/11/05 04:52:55;;;;;;;8.57;3.28;;;5.90;99.90;;;;;;4978801;28;20077;-78
2022/11/05 04:55:21;;;;;;;12.20;3.75;;;5.80;99.90;;;;;;5002206;28;20091;-81
2022/11/05 04:57:48;;;;;;;12.27;4.10;;;5.90;99.90;;;;;;4990699;28;20369;-77
2022/11/05 05:00:15;;;;;;;8.73;3.78;;;5.80;99.90;;;;;;5000620;28;20037;-80
2022/11/05 05:02:40;;;;;;;12.45;3.83;;;5.90;99.90;;;;;;5001312;28;20461;-80
2022/11/05 05:05:06;;;;;;;14.77;4.45;;;5.80;99.90;;;;;;5005220;28;20038;-78
2022/11/05 05:07:33;;;;;;;12.02;4.25;;;5.60;99.90;;;;;;4992675;28;20033;-80
2022/11/05 05:10:00;;;;;;;16.35;4.47;;;5.80;99.90;;;;;;5004118;28;20129;-82
2022/11/05 05:12:26;;;;;;;12.10;4.85;;;5.70;99.90;;;;;;4979736;28;20081;-78
2022/11/05 05:15:04;;;;;;;9.95;4.80;;;5.70;99.90;;;;;;5008026;28;20079;-79
2022/11/05 05:17:30;;;;;;;9.50;5.03;;;5.70;99.90;;;;;;5008811;28;20053;-82
2022/11/05 05:22:40;;;;;;;12.10;5.35;;;5.60;99.90;;;;;;5015970;28;20053;-78
2022/11/05 05:25:05;;;;;;;19.83;6.63;;;5.60;99.90;;;;;;5006847;28;20037;-79
2022/11/05 05:27:31;;;;;;;19.00;6.88;;;5.50;99.90;;;;;;4994603;28;20067;-82
2022/11/05 05:29:58;;;;;;;18.88;7.35;;;5.40;99.90;;;;;;4994055;28;20037;-82
2022/11/05 05:32:25;;;;;;;13.15;6.70;;;5.50;99.90;;;;;;5020740;28;20133;-78
2022/11/05 05:34:51;;;;;;;16.00;6.65;;;5.50;99.90;;;;;;5000412;28;20037;-83
2022/11/05 05:37:17;;;;;;;16.73;7.38;;;5.60;99.90;;;;;;4990997;28;20104;-80
2022/11/05 05:39:43;;;;;;;18.88;7.82;;;5.50;99.90;;;;;;4991389;28;20811;-79
2022/11/05 05:42:10;;;;;;;13.93;6.72;;;5.70;99.90;;;;;;4989376;28;20050;-82
2022/11/05 05:44:35;;;;;;;17.52;6.78;;;5.50;99.90;;;;;;5006941;28;20041;-81
2022/11/05 05:47:02;;;;;;;21.77;6.82;;;5.40;99.90;;;;;;5002066;28;20033;-81
2022/11/05 05:49:28;;;;;;;12.55;6.80;;;5.50;99.90;;;;;;4992926;28;20148;-80
2022/11/05 05:51:54;;;;;;;15.02;6.35;;;5.40;99.90;;;;;;5004611;28;20124;-77
2022/11/05 05:54:21;;;;;;;13.35;6.47;;;5.40;99.90;;;;;;4981818;28;20146;-80
2022/11/05 05:56:47;;;;;;;16.30;6.97;;;5.40;99.90;;;;;;5005533;28;20055;-81
2022/11/05 05:59:13;;;;;;;15.55;6.80;;;5.30;99.90;;;;;;5007518;28;20041;-79
2022/11/05 06:01:39;;;;;;;15.38;7.65;;;5.40;99.90;;;;;;5007504;28;20045;-79
2022/11/05 06:04:04;;;;;;;17.23;7.57;;;5.40;99.90;;;;;;4998833;28;20041;-78
2022/11/05 06:06:30;;;;;;;16.05;7.50;;;5.40;99.90;;;;;;5004950;28;20060;-80
2022/11/05 06:08:56;;;;;;;17.00;7.53;;;5.50;99.90;;;;;;5001222;28;20489;-78
2022/11/05 06:11:23;;;;;;;11.60;6.95;;;5.50;99.90;;;;;;5003831;28;20087;-78
2022/11/05 06:13:49;;;;;;;16.27;7.65;;;5.50;99.90;;;;;;5001588;28;20041;-80
2022/11/05 06:16:15;;;;;;;15.05;6.97;;;5.40;99.90;;;;;;5018702;28;20113;-80
2022/11/05 06:18:41;;;;;;;13.52;6.90;;;5.50;99.90;;;;;;4993240;28;20179;-81
2022/11/05 06:21:10;;;;;;;13.52;6.35;;;5.40;99.90;;;;;;4988669;28;20049;-81
2022/11/05 06:23:40;;;;;;;14.18;6.10;;;5.30;99.90;;;;;;4984895;28;20064;-80
2022/11/05 06:26:08;;;;;;;10.32;6.22;;;5.20;99.90;;;;;;4990695;28;20095;-77
2022/11/05 06:28:34;;;;;;;17.38;6.95;;;5.30;99.90;;;;;;5003662;28;20041;-80
2022/11/05 06:31:00;;;;;;;14.77;6.57;;;5.40;99.90;;;;;;4990138;28;20072;-77
2022/11/05 06:33:26;;;;;;;17.35;7.18;;;5.10;99.90;;;;;;4989004;28;20500;-80
2022/11/05 06:35:52;;;;;;;12.20;6.97;;;5.20;99.90;;;;;;4984646;28;20042;-77
2022/11/05 06:38:19;;;;;;;15.25;7.25;;;5.20;99.90;;;;;;5006540;28;20052;-79
2022/11/05 06:40:45;;;;;;;13.18;7.55;;;5.00;99.90;;;;;;5001797;28;20539;-79
2022/11/05 06:43:11;;;;;;;12.75;7.53;;;5.10;99.90;;;;;;4993790;28;20204;-80
2022/11/05 06:45:36;;;;;;;19.48;7.15;;;5.10;99.90;;;;;;5006483;28;20120;-81
2022/11/05 06:48:03;;;;;;;17.65;7.53;;;5.00;99.90;;;;;;5006718;28;20060;-80
2022/11/05 06:50:29;;;;;;;18.05;8.13;;;5.00;99.90;;;;;;5002554;28;20054;-77
2022/11/05 06:52:59;;;;;;;17.63;7.82;;;5.00;99.90;;;;;;5010597;28;20042;-80
2022/11/05 06:55:28;;;;;;;14.70;8.60;;;5.20;99.90;;;;;;5011021;28;20033;-79
2022/11/05 06:57:54;;;;;;;18.63;8.52;;;5.00;99.90;;;;;;5003552;28;20046;-82
2022/11/05 07:00:21;;;;;;;16.25;8.27;;;5.00;99.90;;;;;;5003569;28;20176;-79
2022/11/05 07:02:46;;;;;;;17.98;8.00;;;5.00;99.90;;;;;;5008786;28;20110;-77
2022/11/05 07:05:13;;;;;;;18.67;8.40;;;5.00;99.90;;;;;;5008528;28;20128;-78
2022/11/05 07:07:44;;;;;;;21.77;8.63;;;5.00;99.90;;;;;;5007956;28;20412;-81
2022/11/05 07:10:12;;;;;;;14.65;8.05;;;5.10;99.90;;;;;;5004512;28;20056;-78
2022/11/05 07:12:39;;;;;;;15.77;7.70;;;5.20;99.90;;;;;;4994169;28;20045;-82
2022/11/05 07:15:06;;;;;;;15.90;7.90;;;5.10;99.90;;;;;;4995747;28;20071;-80
2022/11/05 07:17:32;;;;;;;22.52;7.93;;;5.20;99.90;;;;;;4989867;28;21732;-78
2022/11/05 07:19:59;;;;;;;16.48;7.88;;;5.20;99.90;;;;;;5008625;28;20087;-80
2022/11/05 07:22:24;;;;;;;17.60;7.80;;;5.10;99.90;;;;;;4991262;28;20473;-78
2022/11/05 07:24:50;;;;;;;15.65;7.40;;;5.20;99.90;;;;;;4991190;28;20044;-79
2022/11/05 07:27:16;;;;;;;22.63;7.97;;;5.10;99.90;;;;;;5007535;28;20033;-78
2022/11/05 07:29:42;;;;;;;16.02;8.35;;;5.10;99.90;;;;;;5007546;28;20037;-81
2022/11/05 07:32:07;;;;;;;15.88;7.90;;;5.30;99.90;;;;;;4982984;28;20052;-80
2022/11/05 07:34:33;;;;;;;12.95;6.80;;;5.30;99.90;;;;;;4987341;28;20488;-76
2022/11/05 07:36:59;;;;;;;16.05;7.53;;;5.30;99.90;;;;;;5014100;28;20055;-79
2022/11/05 07:39:24;;;;;;;14.45;7.00;;;5.30;99.90;;;;;;5012252;28;20440;-78
2022/11/05 07:41:54;;;;;;;17.83;7.97;;;5.40;99.90;;;;;;5002724;28;20037;-78
2022/11/05 07:44:20;;;;;;;14.45;7.18;;;5.50;99.90;;;;;;4998896;28;20129;-79
2022/11/05 07:50:33;;;;;;;15.60;7.50;;;5.50;99.90;;;;;;5032548;28;20547;-79
2022/11/05 07:53:13;;;;;;;20.33;8.15;;;5.70;99.90;;;;;;5016061;28;20111;-78
2022/11/05 07:55:44;;;;;;;13.30;7.50;;;5.80;99.90;;;;;;4990888;28;20054;-78
2022/11/05 07:58:10;;;;;;;15.18;7.40;;;5.80;99.90;;;;;;4984811;28;20084;-79
2022/11/05 08:00:56;;;;;;;16.63;7.35;;;5.80;99.90;;;;;;5002169;28;20048;-84
2022/11/05 08:03:22;;;;;;;16.75;7.57;;;5.80;99.90;;;;;;5011373;28;20409;-79
2022/11/05 08:05:48;;;;;;;15.23;7.97;;;6.00;99.90;;;;;;5009259;28;20037;-80
2022/11/05 08:08:19;;;;;;;15.55;8.18;;;6.00;99.90;;;;;;4993700;28;20120;-81
2022/11/05 08:10:45;;;;;;;19.98;8.05;;;6.20;99.90;;;;;;4998824;28;20041;-80
2022/11/05 08:13:12;;;;;;;14.05;7.50;;;6.00;99.90;;;;;;5006794;28;20040;-80
2022/11/05 08:15:37;;;;;;;17.90;7.70;;;6.20;99.90;;;;;;4991350;28;20103;-79
2022/11/05 08:18:06;;;;;;;11.25;7.13;;;6.20;99.90;;;;;;5022592;28;20129;-78
2022/11/05 08:20:33;;;;;;;21.55;7.32;;;6.40;99.90;;;;;;5011242;28;20129;-82
2022/11/05 08:22:59;;;;;;;19.15;7.00;;;6.40;99.90;;;;;;4994231;28;20388;-80
2022/11/05 08:25:25;;;;;;;13.93;7.10;;;6.40;99.90;;;;;;4986677;28;20091;-81
2022/11/05 08:27:56;;;;;;;14.43;7.25;;;6.70;99.90;;;;;;5003040;28;20046;-78
2022/11/05 08:30:22;;;;;;;14.55;7.05;;;6.80;99.90;;;;;;5003000;28;20072;-81
2022/11/05 08:32:48;;;;;;;12.43;6.82;;;6.90;99.90;;;;;;4996010;28;20429;-77
2022/11/05 08:35:14;;;;;;;18.50;6.97;;;7.10;99.90;;;;;;5000053;28;20053;-80
2022/11/05 08:37:39;;;;;;;10.15;6.20;;;7.00;99.90;;;;;;5002476;28;20049;-80
2022/11/05 08:40:05;;;;;;;12.77;6.20;;;7.30;99.90;;;;;;5001493;28;20129;-79
2022/11/05 08:42:31;;;;;;;11.30;5.85;;;7.30;99.90;;;;;;4996141;28;20152;-82
2022/11/05 08:44:57;;;;;;;9.82;5.75;;;7.50;99.90;;;;;;4985865;28;20144;-77
2022/11/05 08:47:23;;;;;;;10.07;5.20;;;7.60;99.90;;;;;;5000634;28;20046;-79
2022/11/05 08:49:49;;;;;;;11.43;5.07;;;7.70;99.90;;;;;;4988878;28;20045;-79
2022/11/05 08:52:14;;;;;;;11.75;5.32;;;8.00;99.90;;;;;;4997754;28;20093;-80
2022/11/05 08:54:41;;;;;;;13.32;4.88;;;8.00;99.90;;;;;;5009285;28;20103;-79
2022/11/05 08:57:07;;;;;;;12.30;4.93;;;8.00;99.90;;;;;;4996232;28;20092;-79
2022/11/05 08:59:33;;;;;;;9.82;4.45;;;8.20;99.90;;;;;;4978647;28;20148;-80
2022/11/05 09:01:59;;;;;;;14.13;4.60;;;8.20;99.90;;;;;;4992868;28;20065;-78
2022/11/05 09:04:24;;;;;;;11.20;4.40;;;8.40;99.90;;;;;;4990448;28;20079;-79
2022/11/05 09:06:50;;;;;;;10.65;4.45;;;8.70;99.90;;;;;;4986108;28;20175;-81
2022/11/05 09:09:15;;;;;;;10.77;4.43;;;8.70;99.90;;;;;;4984881;28;20037;-79
2022/11/05 09:11:41;;;;;;;9.20;3.85;;;9.00;99.90;;;;;;5010772;28;20037;-80
2022/11/05 09:14:07;;;;;;;8.95;4.15;;;9.00;99.90;;;;;;5004408;28;20054;-79
2022/11/05 09:16:35;;;;;;;10.10;3.40;;;9.00;99.90;;;;;;4986407;28;20677;-80
2022/11/05 09:19:05;;;;;;;15.02;3.63;;;9.00;99.90;;;;;;4997646;28;20061;-80
2022/11/05 09:21:31;;;;;;;9.32;4.00;;;9.00;99.90;;;;;;5000509;28;20050;-76
2022/11/05 09:23:56;;;;;;;11.38;3.60;;;9.10;99.90;;;;;;4976752;28;20412;-82
2022/11/05 09:26:22;;;;;;;5.05;3.20;;;9.40;99.90;;;;;;5004868;28;20033;-80
2022/11/05 09:28:48;;;;;;;11.77;3.35;;;9.30;99.90;;;;;;4992310;28;20052;-79
2022/11/05 09:31:14;;;;;;;8.02;3.35;;;9.20;99.90;;;;;;5013182;28;20495;-78
2022/11/05 09:33:40;;;;;;;10.88;3.50;;;9.30;99.90;;;;;;5011643;28;20065;-81
2022/11/05 09:36:07;;;;;;;7.90;3.47;;;9.60;99.90;;;;;;4996586;28;20523;-77
2022/11/05 09:38:36;;;;;;;10.18;3.40;;;9.40;99.90;;;;;;4990026;28;20060;-80
2022/11/05 09:41:11;;;;;;;7.72;3.33;;;9.60;99.90;;;;;;5003517;28;20045;-81
2022/11/05 09:43:55;;;;;;;;;;;9.70;99.90;;;;;;5003287;28;20045;-81
2022/11/05 09:46:27;;;;;;;9.20;3.45;;;9.70;99.90;;;;;;4990527;28;19917;-78
2022/11/05 09:49:04;;;;;;;9.90;3.55;;;9.60;99.90;;;;;;5008886;28;20152;-79
2022/11/05 09:51:31;;;;;;;10.50;3.42;;;9.60;99.90;;;;;;5010691;28;20077;-76
2022/11/05 09:53:58;;;;;;;11.10;3.50;;;9.50;99.90;;;;;;5002584;28;20392;-78
2022/11/05 09:56:28;;;;;;;9.20;3.05;;;9.50;99.90;;;;;;4995959;28;20045;-79
2022/11/05 09:59:01;;;;;;;9.73;3.67;;;9.70;99.90;;;;;;4996366;28;20084;-79
2022/11/05 10:01:32;;;;;;;14.40;3.45;;;9.60;99.90;;;;;;4980002;28;20045;-77
2022/11/05 10:04:01;;;;;;;10.13;3.30;;;9.70;99.90;;;;;;4990881;28;20376;-78
2022/11/05 10:06:27;;;;;;;6.40;2.83;;;9.70;99.90;;;;;;4986971;28;20041;-81
2022/11/05 10:09:10;;;;;;;7.93;2.60;;;10.00;99.90;;;;;;5003857;28;20054;-79
2022/11/05 10:11:50;;;;;;;7.25;2.72;;;10.00;99.90;;;;;;5022464;28;20041;-77
2022/11/05 10:14:29;;;;;;;7.07;2.42;;;10.10;99.90;;;;;;5009422;28;20084;-84
2022/11/05 10:17:09;;;;;;;9.63;2.95;;;10.50;99.90;;;;;;5007148;28;20518;-80
2022/11/05 10:19:53;;;;;;;9.82;2.90;;;10.80;99.90;;;;;;5005713;28;20187;-82
2022/11/05 10:22:19;;;;;;;7.72;3.08;;;10.60;99.90;;;;;;5000317;28;20061;-77
2022/11/05 10:24:50;;;;;;;10.98;2.75;;;10.80;99.90;;;;;;5005617;28;20045;-80
2022/11/05 10:27:22;;;;;;;8.63;3.10;;;10.80;99.90;;;;;;4983962;28;20496;-75
2022/11/05 10:29:48;;;;;;;7.57;2.65;;;10.80;99.90;;;;;;5003399;28;20511;-81
2022/11/05 10:32:41;;;;;;;7.32;2.70;;;10.90;99.90;;;;;;4978503;28;20144;-80
2022/11/05 10:35:11;;;;;;;12.07;2.90;;;11.00;99.90;;;;;;4917515;29;20082;-81
2022/11/05 10:37:37;;;;;;;6.18;2.72;;;10.90;99.90;;;;;;4936066;29;20130;-78
2022/11/05 10:40:35;;;;;;;7.72;3.15;;;10.80;99.90;;;;;;4921678;29;20558;-77
2022/11/05 10:43:23;;;;;;;8.32;2.83;;;10.70;99.90;;;;;;4922597;29;20057;-77
2022/11/05 10:45:59;;;;;;;7.35;3.17;;;10.80;99.90;;;;;;4921066;28;20054;-77
2022/11/05 10:48:50;;;;;;;9.35;3.80;;;10.90;99.90;;;;;;4926113;29;20547;-78
2022/11/05 10:51:16;;;;;;;9.05;3.25;;;11.00;99.90;;;;;;4926790;29;20122;-77
2022/11/05 10:53:55;;;;;;;9.82;2.35;;;11.10;99.90;;;;;;4933515;29;20106;-80
2022/11/05 10:56:34;;;;;;;9.18;2.50;;;11.10;99.90;;;;;;4913683;28;20062;-78
2022/11/05 10:59:01;;;;;;;9.77;2.50;;;11.20;99.90;;;;;;4930902;29;20051;-80
2022/11/05 11:01:29;;;;;;;6.88;2.50;;;11.10;99.90;;;;;;4932137;29;20059;-77
2022/11/05 11:04:28;;;;;;;6.13;2.67;;;11.20;99.90;;;;;;4932811;29;20142;-79
2022/11/05 11:06:56;;;;;;;9.80;2.70;;;11.20;99.90;;;;;;4837890;29;20087;-78
2022/11/05 11:09:27;;;;;;;16.88;3.03;;;11.30;99.90;;;;;;4864919;29;20041;-78
2022/11/05 11:12:08;;;;;;;8.05;2.70;;;11.20;99.90;;;;;;4887420;29;20062;-81
2022/11/05 11:14:34;;;;;;;9.68;2.30;;;11.20;99.90;;;;;;4925536;29;20155;-78
2022/11/05 11:17:35;;;;;;;6.40;2.65;;;11.20;99.90;;;;;;4942182;29;20463;-77
2022/11/05 11:20:22;;;;;;;6.45;2.15;;;11.30;99.90;;;;;;4872824;29;20110;-77
2022/11/05 11:23:06;;;;;;;6.78;2.47;;;11.30;99.90;;;;;;4899348;29;20044;-79
2022/11/05 11:25:46;;;;;;;6.90;2.00;;;11.50;99.90;;;;;;4896758;29;20192;-77
2022/11/05 11:28:24;;;;;;;6.35;2.10;;;11.50;99.90;;;;;;4871395;29;20051;-78
2022/11/05 11:31:03;;;;;;;5.43;2.13;;;11.60;99.90;;;;;;4893820;29;20060;-78
2022/11/05 11:33:31;;;;;;;8.77;2.10;;;11.70;99.90;;;;;;4902170;29;20151;-78
2022/11/05 11:35:58;;;;;;;8.25;2.00;;;11.70;99.90;;;;;;4873777;29;20052;-80
2022/11/05 11:38:29;;;;;;;6.57;1.92;;;11.70;99.90;;;;;;4886322;29;20053;-75
2022/11/05 11:41:22;;;;;;;8.43;1.92;;;11.80;99.90;;;;;;4835972;29;20054;-78
2022/11/05 11:43:55;;;;;;;5.55;1.90;;;11.80;99.90;;;;;;4853723;29;20068;-79
2022/11/05 11:46:21;;;;;;;5.50;1.98;;;11.90;99.90;;;;;;4876414;29;20045;-79
2022/11/05 11:48:48;;;;;;;8.30;1.95;;;11.80;99.90;;;;;;4876938;29;20056;-79
2022/11/05 11:51:27;;;;;;;6.97;1.90;;;11.70;99.90;;;;;;4875328;29;20060;-80
2022/11/05 11:53:59;;;;;;;7.43;1.90;;;11.70;99.90;;;;;;4880396;29;20333;-80
2022/11/05 11:56:27;;;;;;;7.38;1.98;;;11.60;99.90;;;;;;4895627;29;20100;-80
2022/11/05 11:58:55;;;;;;;8.18;1.98;;;11.40;99.90;;;;;;4887987;29;20056;-78
2022/11/05 12:01:39;;;;;;;7.00;1.52;;;11.40;99.90;;;;;;4898108;29;20162;-77
2022/11/05 12:04:28;;;;;;;5.30;1.75;;;11.30;99.90;;;;;;4918606;29;20130;-75
2022/11/05 12:07:02;;;;;;;10.80;2.60;;;11.30;99.90;;;;;;4900795;29;20055;-77
2022/11/05 12:09:33;;;;;;;15.30;4.93;;;11.20;99.90;;;;;;4881517;29;20040;-78
2022/11/05 12:12:06;;;;;;;14.93;6.88;;;11.20;99.90;;;;;;4868043;29;20056;-78
2022/11/05 12:14:59;;;;;;;7.40;1.85;;;11.30;99.90;;;;;;4874552;29;20045;-78
2022/11/05 12:17:37;;;;;;;4.10;1.67;;;11.30;99.90;;;;;;4881248;29;20072;-80
2022/11/05 12:20:35;;;;;;;6.22;1.50;;;11.30;99.90;;;;;;4891994;28;20047;-78
2022/11/05 12:23:41;;;;;;;6.55;1.48;;;11.20;99.90;;;;;;4905414;28;20065;-75
2022/11/05 12:26:23;;;;;;;5.35;1.52;;;11.20;99.90;;;;;;4858460;29;20193;-81
2022/11/05 12:29:13;;;;;;;4.88;1.80;;;11.10;99.90;;;;;;4872515;29;20064;-77
2022/11/05 12:32:09;;;;;;;3.78;1.50;;;11.10;99.90;;;;;;4886894;29;20053;-78
2022/11/05 12:35:03;;;;;;;2.60;0.90;;;11.20;99.90;;;;;;4876751;29;20040;-78
2022/11/05 12:37:54;;;;;;;4.47;1.10;;;11.20;99.90;;;;;;4854640;29;20175;-79
2022/11/05 12:40:58;;;;;;;2.67;0.80;;;11.10;99.90;;;;;;4875562;29;20127;-80
2022/11/05 12:43:44;;;;;;;3.47;0.80;;;11.10;99.90;;;;;;4875793;29;20173;-76
2022/11/05 12:46:31;;;;;;;3.38;0.70;;;11.00;99.90;;;;;;4906721;29;20400;-81
2022/11/05 12:49:21;;;;;;;7.65;1.25;;;11.10;99.90;;;;;;4912603;29;20052;-79
2022/11/05 12:51:58;;;;;;;2.40;0.80;;;11.00;99.90;;;;;;4930200;29;20151;-80
2022/11/05 12:54:48;;;;;;;4.35;0.95;;;11.00;99.90;;;;;;4894115;29;20053;-80
2022/11/05 12:57:16;;;;;;;5.25;1.20;;;11.00;99.90;;;;;;4903517;29;20078;-76
2022/11/05 12:59:51;;;;;;;4.55;1.00;;;10.90;99.90;;;;;;4915525;29;20051;-80
2022/11/05 13:02:25;;;;;;;5.00;1.27;;;10.90;99.90;;;;;;4922056;28;20051;-79
2022/11/05 13:05:04;;;;;;;5.65;1.13;;;10.90;99.90;;;;;;5011062;28;20049;-76
2022/11/05 13:07:34;;;;;;;3.20;0.65;;;10.70;99.90;;;;;;4989253;28;20132;-80
2022/11/05 13:10:12;;;;;;;3.45;0.90;;;10.70;99.90;;;;;;4992864;28;20043;-77
2022/11/05 13:12:40;;;;;;;4.38;1.08;;;10.50;99.90;;;;;;4993895;28;20410;-77
2022/11/05 13:15:24;;;;;;;3.10;0.90;;;10.40;99.90;;;;;;4979263;28;20061;-79
2022/11/05 13:18:05;;;;;;;5.95;0.98;;;10.20;99.90;;;;;;5026574;28;20508;-81
2022/11/05 13:20:42;;;;;;;2.17;1.10;;;10.30;99.90;;;;;;5005436;28;20062;-77
2022/11/05 13:23:26;;;;;;;2.70;1.15;;;10.50;99.90;;;;;;4992408;28;20086;-76
2022/11/05 13:26:01;;;;;;;4.53;1.20;;;10.40;99.90;;;;;;5022975;28;20042;-80
2022/11/05 13:28:32;;;;;;;5.88;1.42;;;10.70;99.90;;;;;;5027091;28;20070;-78
2022/11/05 13:31:01;;;;;;;3.50;0.77;;;10.60;99.90;;;;;;5026253;28;20187;-78
2022/11/05 13:33:32;;;;;;;5.88;1.33;;;10.70;99.90;;;;;;4995662;28;20050;-76
2022/11/05 13:39:18;;;;;;;3.75;1.00;;;10.60;99.90;;;;;;5004404;28;20477;-77
2022/11/05 13:42:05;;;;;;;5.07;1.15;;;10.70;99.90;;;;;;5003751;28;20453;-78
2022/11/05 13:44:31;;;;;;;3.55;1.23;;;10.70;99.90;;;;;;4991032;28;20034;-78
2022/11/05 13:47:18;;;;;;;3.80;1.02;;;10.90;99.90;;;;;;4984061;28;20214;-77
2022/11/05 13:50:04;;;;;;;3.95;1.02;;;10.70;99.90;;;;;;4987531;28;20486;-80
2022/11/05 13:52:42;;;;;;;3.65;1.35;;;10.90;99.90;;;;;;5002979;28;20093;-78
2022/11/05 13:55:29;;;;;;;5.40;1.35;;;10.90;99.90;;;;;;4996785;28;20054;-78
2022/11/05 13:58:29;;;;;;;5.85;1.58;;;10.90;99.90;;;;;;4971982;28;20056;-78
2022/11/05 14:01:16;;;;;;;7.78;1.98;;;10.70;99.90;;;;;;4965106;28;20041;-76
2022/11/05 14:03:51;;;;;;;7.35;2.67;;;10.90;99.90;;;;;;4979588;28;20133;-78